Weather at University Medical Center Hospital Heliport

Public forecast

Using degrees Fahrenheit for public forecast. Weather courtesy of forecast.io.

Closest aviation weather report (METAR) to University Medical Center Hospital Heliport

Report is more than 2 hours old.

Closest report is Davis Monthan Air Force Base, 5.6 nm (10.3 km) SE. Retrieved 2022/01/29 04:58 UTC (3 hours ago):

KDMA 290458Z AUTO 06005KT 10SM SCT190 BKN220 09/M08 A3023 RMK AO2 SLP224 T00921079

Closest aviation forecast (TAF) to University Medical Center Hospital Heliport

Forecast is more than 6 hours old.

Closest forecast is Davis Monthan Air Force Base, 5.6 nm (10.3 km) SE. Retrieved 2022/01/28 22:19 UTC (9 hours ago):

TAF KDMA 282200Z 2822/3004 09012G18KT 9999 SCT220 QNH3018INS BECMG 2903/2904 09012KT 9999 BKN200 QNH3015INS BECMG 2914/2915 12015G20KT 9999 SCT160 510008 QNH3005INS TEMPO 2916/2920 12020G30KT 520008 BECMG 3003/3004 11012KT 9999 FEW130 SCT230 QNH3005INS TX20/2921Z TN05/2914Z